createdAt,value
2022-11-03T00:00:36.315Z,76.07
2022-11-03T00:05:56.676Z,76.37
2022-11-03T00:11:09.342Z,76.47
2022-11-03T00:16:11.951Z,76.68
2022-11-03T00:21:14.713Z,76.14
2022-11-03T00:26:21.091Z,75.94
2022-11-03T00:31:31.546Z,76.63
2022-11-03T00:36:36.120Z,76.08
2022-11-03T00:41:39.120Z,76.34
2022-11-03T00:46:41.128Z,76.25
2022-11-03T00:51:43.132Z,76.64
2022-11-03T00:56:45.148Z,76.27
2022-11-03T01:01:48.113Z,76.51
2022-11-03T01:06:52.732Z,76.08
2022-11-03T01:12:04.541Z,76.36
2022-11-03T01:17:24.593Z,76.60
2022-11-03T01:22:26.556Z,76.67
2022-11-03T01:27:28.520Z,76.15
2022-11-03T01:32:30.520Z,76.68
2022-11-03T01:37:32.436Z,76.48
2022-11-03T01:42:34.455Z,76.66
2022-11-03T01:47:37.417Z,76.83
2022-11-03T01:52:42.422Z,76.03
2022-11-03T01:57:59.531Z,76.23
2022-11-03T02:03:02.426Z,76.11
2022-11-03T02:08:39.787Z,76.31
2022-11-03T02:13:41.713Z,76.71
2022-11-03T02:18:45.400Z,76.51
2022-11-03T02:23:58.201Z,77.12
2022-11-03T02:29:00.242Z,77.23
2022-11-03T02:34:29.494Z,76.85
2022-11-03T02:39:57.184Z,77.02
2022-11-03T02:45:02.693Z,76.84
2022-11-03T02:50:08.806Z,77.21
2022-11-03T02:55:31.786Z,77.22
2022-11-03T03:00:43.500Z,77.19
2022-11-03T03:05:47.237Z,76.93
2022-11-03T03:10:49.815Z,77.00
2022-11-03T03:15:51.568Z,77.03
2022-11-03T03:21:02.161Z,77.37
2022-11-03T03:26:10.617Z,77.09
2022-11-03T03:31:15.046Z,77.21
2022-11-03T03:36:19.358Z,77.19
2022-11-03T03:41:24.924Z,77.40
2022-11-03T03:46:32.701Z,77.38
2022-11-03T03:51:35.313Z,77.60
2022-11-03T03:56:50.101Z,77.48
2022-11-03T04:01:52.127Z,76.98
2022-11-03T04:07:14.148Z,77.29
2022-11-03T04:12:34.855Z,77.01
2022-11-03T04:17:57.620Z,77.06
2022-11-03T04:22:59.559Z,77.37
2022-11-03T04:28:02.366Z,77.36
2022-11-03T04:33:12.892Z,77.11
2022-11-03T04:38:14.764Z,77.22
2022-11-03T04:43:20.547Z,76.74
2022-11-03T04:48:24.130Z,76.95
2022-11-03T04:53:30.808Z,77.08
2022-11-03T04:58:35.363Z,77.10
2022-11-03T05:03:38.121Z,77.11
2022-11-03T05:08:40.873Z,77.11
2022-11-03T05:13:43.189Z,76.95
2022-11-03T05:18:48.698Z,76.95
2022-11-03T05:23:58.412Z,77.03
2022-11-03T05:29:04.858Z,76.84
2022-11-03T05:34:35.638Z,76.36
2022-11-03T05:39:41.671Z,76.40
2022-11-03T05:44:43.921Z,76.25
2022-11-03T05:49:46.223Z,76.97
2022-11-03T05:54:49.177Z,76.49
2022-11-03T05:59:52.886Z,76.46
2022-11-03T06:04:55.135Z,76.78
2022-11-03T06:09:58.623Z,76.52
2022-11-03T06:15:00.624Z,77.30
2022-11-03T06:20:02.726Z,76.87
2022-11-03T06:25:22.992Z,77.11
2022-11-03T06:30:31.709Z,77.21
2022-11-03T06:35:35.198Z,77.91
2022-11-03T06:40:38.699Z,78.29
2022-11-03T06:46:02.085Z,79.42
2022-11-03T06:51:04.452Z,80.55
2022-11-03T06:56:15.555Z,81.02
2022-11-03T07:01:23.149Z,82.27
2022-11-03T07:06:31.431Z,82.17
2022-11-03T07:11:44.130Z,81.54
2022-11-03T07:16:53.418Z,81.09
2022-11-03T07:21:59.040Z,80.87
2022-11-03T07:27:13.415Z,81.26
2022-11-03T07:32:24.610Z,81.64
2022-11-03T07:37:26.682Z,81.93
2022-11-03T07:42:28.995Z,82.45
2022-11-03T07:47:31.182Z,82.06
2022-11-03T07:52:33.223Z,82.42
2022-11-03T07:57:35.255Z,82.54
2022-11-03T08:02:44.143Z,82.44
2022-11-03T08:07:46.085Z,82.01
2022-11-03T08:12:48.069Z,82.08
2022-11-03T08:17:55.908Z,82.45
2022-11-03T08:23:24.532Z,82.43
2022-11-03T08:28:20.114Z,82.46
2022-11-03T08:33:22.187Z,82.63
2022-11-03T08:38:24.177Z,82.54
2022-11-03T08:43:26.497Z,82.46
2022-11-03T08:48:29.078Z,82.40
2022-11-03T08:53:31.110Z,82.41
2022-11-03T08:58:33.122Z,82.46
2022-11-03T09:03:35.456Z,82.58
2022-11-03T09:13:59.515Z,81.94
2022-11-03T09:19:01.506Z,81.38
2022-11-03T09:24:03.618Z,80.52
2022-11-03T09:29:05.786Z,80.20
2022-11-03T09:34:07.980Z,78.76
2022-11-03T09:39:10.022Z,78.48
2022-11-03T09:44:12.826Z,76.23
2022-11-03T09:49:16.345Z,75.95
2022-11-03T09:54:18.610Z,75.78
2022-11-03T09:59:23.825Z,71.85
2022-11-03T10:04:28.383Z,71.36
2022-11-03T10:09:30.425Z,68.38
2022-11-03T10:14:32.386Z,68.38
2022-11-03T10:19:34.351Z,66.08
2022-11-03T10:24:36.374Z,67.08
2022-11-03T10:29:39.960Z,64.19
2022-11-03T10:34:43.395Z,63.96
2022-11-03T10:39:46.287Z,64.18
2022-11-03T10:44:51.950Z,60.57
2022-11-03T10:49:55.401Z,59.23
2022-11-03T10:54:59.972Z,60.95
2022-11-03T11:00:02.235Z,60.19
2022-11-03T11:05:15.369Z,59.34
2022-11-03T11:10:22.593Z,56.95
2022-11-03T11:15:40.665Z,56.52
2022-11-03T11:20:42.898Z,56.86
2022-11-03T11:26:14.482Z,59.30
2022-11-03T11:31:29.077Z,57.11
2022-11-03T11:36:31.100Z,53.96
2022-11-03T11:42:10.586Z,58.83
2022-11-03T11:47:27.435Z,59.56
2022-11-03T11:52:31.013Z,54.62
2022-11-03T11:57:35.422Z,56.67
2022-11-03T12:02:37.444Z,58.47
2022-11-03T12:07:39.380Z,57.73
2022-11-03T12:12:42.741Z,58.97
2022-11-03T12:17:44.705Z,60.95
2022-11-03T12:22:46.767Z,61.67
2022-11-03T12:27:48.751Z,61.46
2022-11-03T12:32:51.983Z,62.45
2022-11-03T12:37:53.966Z,59.90
2022-11-03T12:42:56.100Z,59.98
2022-11-03T12:47:58.153Z,60.76
2022-11-03T12:53:00.157Z,57.45
2022-11-03T12:58:03.410Z,60.28
2022-11-03T13:03:05.601Z,60.42
2022-11-03T13:08:07.985Z,60.73
2022-11-03T13:13:10.476Z,60.95
2022-11-03T13:18:14.035Z,61.23
2022-11-03T13:23:18.916Z,61.95
2022-11-03T13:28:24.308Z,62.64
2022-11-03T13:33:26.273Z,62.57
2022-11-03T13:38:28.334Z,61.91
2022-11-03T13:43:30.342Z,62.65
2022-11-03T14:04:41.201Z,63.47
2022-11-03T14:09:43.376Z,63.88
2022-11-03T14:14:45.662Z,63.85
2022-11-03T14:19:52.305Z,62.91
2022-11-03T14:24:54.589Z,63.23
2022-11-03T14:29:56.622Z,63.38
2022-11-03T14:34:58.711Z,62.83
2022-11-03T14:40:00.784Z,63.06
2022-11-03T14:45:02.872Z,63.01
2022-11-03T14:50:05.332Z,61.88
2022-11-03T14:55:07.778Z,62.53
2022-11-03T15:00:11.643Z,62.97
2022-11-03T15:05:33.577Z,61.40
2022-11-03T15:10:35.525Z,60.73
2022-11-03T15:15:37.460Z,60.99
2022-11-03T15:20:39.544Z,61.34
2022-11-03T15:25:41.550Z,61.29
2022-11-03T15:30:43.370Z,61.52
2022-11-03T15:35:46.413Z,61.74
2022-11-03T15:40:48.491Z,61.30
2022-11-03T15:45:50.496Z,61.51
2022-11-03T15:50:52.574Z,61.71
2022-11-03T15:55:54.475Z,61.24
2022-11-03T16:00:56.569Z,61.39
2022-11-03T16:05:58.745Z,61.51
2022-11-03T16:11:00.992Z,62.14
2022-11-03T16:16:03.696Z,62.38
2022-11-03T16:21:05.949Z,62.53
2022-11-03T16:26:09.248Z,62.97
2022-11-03T16:31:11.268Z,63.64
2022-11-03T16:36:13.640Z,63.41
2022-11-03T16:41:16.117Z,63.98
2022-11-03T16:46:18.401Z,63.20
2022-11-03T16:51:20.539Z,64.04
2022-11-03T16:56:22.499Z,63.80
2022-11-03T17:01:25.510Z,64.22
2022-11-03T17:06:28.496Z,64.62
2022-11-03T17:11:36.457Z,64.27
2022-11-03T17:16:38.642Z,64.44
2022-11-03T17:21:40.855Z,64.79
2022-11-03T17:26:52.180Z,65.07
2022-11-03T17:31:54.806Z,65.72
2022-11-03T17:36:58.256Z,65.09
2022-11-03T17:42:28.166Z,65.16
2022-11-03T17:47:32.435Z,65.27
2022-11-03T17:52:36.765Z,65.23
2022-11-03T17:57:38.797Z,65.40
2022-11-03T18:02:41.546Z,65.67
2022-11-03T18:07:43.953Z,66.01
2022-11-03T18:13:07.991Z,65.93
2022-11-03T18:18:33.014Z,66.26
2022-11-03T18:23:36.084Z,66.52
2022-11-03T18:28:38.612Z,66.17
2022-11-03T18:33:41.183Z,66.20
2022-11-03T18:38:45.424Z,66.51
2022-11-03T18:43:48.456Z,66.67
2022-11-03T18:48:51.856Z,66.86
2022-11-03T18:53:55.209Z,67.11
2022-11-03T18:58:57.807Z,66.15
2022-11-03T19:03:59.809Z,66.77
2022-11-03T19:09:02.571Z,67.29
2022-11-03T19:14:07.851Z,67.30
2022-11-03T19:19:13.651Z,67.60
2022-11-03T19:24:16.256Z,68.36
2022-11-03T19:29:25.587Z,67.96
2022-11-03T19:34:33.858Z,68.21
2022-11-03T19:39:41.915Z,68.34
2022-11-03T19:44:44.910Z,68.15
2022-11-03T19:49:47.834Z,69.02
2022-11-03T19:54:53.191Z,68.78
2022-11-03T19:59:59.520Z,68.83
2022-11-03T20:05:02.168Z,69.63
2022-11-03T20:10:04.647Z,69.28
2022-11-03T20:15:27.629Z,69.40
2022-11-03T20:20:34.936Z,69.36
2022-11-03T20:25:40.140Z,70.09
2022-11-03T20:30:42.911Z,70.37
2022-11-03T20:35:46.542Z,69.67
2022-11-03T20:40:54.242Z,70.50
2022-11-03T20:45:57.424Z,70.35
2022-11-03T20:50:59.622Z,70.61
2022-11-03T20:56:02.265Z,70.44
2022-11-03T21:01:13.338Z,70.33
2022-11-03T21:06:18.047Z,70.92
2022-11-03T21:11:27.551Z,70.61
2022-11-03T21:16:49.123Z,71.44
2022-11-03T21:21:51.117Z,71.20
2022-11-03T21:26:53.088Z,71.24
2022-11-03T21:31:55.717Z,71.11
2022-11-03T21:36:57.862Z,71.24
2022-11-03T21:42:18.234Z,71.67
2022-11-03T21:47:21.606Z,71.99
2022-11-03T21:52:33.276Z,71.98
2022-11-03T21:57:35.249Z,71.56
2022-11-03T22:02:37.220Z,72.10
2022-11-03T22:07:39.172Z,72.55
2022-11-03T22:12:41.096Z,71.97
2022-11-03T22:17:45.089Z,72.43
2022-11-03T22:23:05.463Z,72.69
2022-11-03T22:28:13.253Z,72.26
2022-11-03T22:33:16.515Z,72.90
2022-11-03T22:38:19.344Z,72.70
2022-11-03T22:43:40.558Z,73.27
2022-11-03T22:48:42.632Z,73.28
2022-11-03T22:54:03.182Z,73.72
2022-11-03T22:59:06.747Z,73.41
2022-11-03T23:04:08.777Z,73.35
2022-11-03T23:09:12.296Z,73.10
2022-11-03T23:14:14.274Z,73.48
2022-11-03T23:19:35.207Z,73.70
2022-11-03T23:24:55.917Z,73.94
2022-11-03T23:29:57.881Z,73.46
2022-11-03T23:34:59.807Z,74.16
2022-11-03T23:40:02.492Z,73.75
2022-11-03T23:45:23.235Z,74.18
2022-11-03T23:50:25.208Z,74.16
2022-11-03T23:55:47.073Z,74.05
